Time;durP1;ratioP1;P1;durP2;ratioP2;P2;SDS_P1;SDS_P2;PMS_P1;PMS_P2;Temp;Humidity;BMP_temperature;BMP_pressure;BME280_temperature;BME280_humidity;BME280_pressure;Samples;Min_cycle;Max_cycle;Signal;HPM_P1;HPM_P2
2020/12/04 00:01:28;;;;;;;28.50;16.55;;;;;;;;;;5072528;28;20033;-78
2020/12/04 00:03:54;;;;;;;31.05;17.35;;;;;;;;;;5093108;28;20043;-78
2020/12/04 00:06:19;;;;;;;31.45;18.33;;;;;;;;;;5093206;28;20028;-78
2020/12/04 00:08:45;;;;;;;32.75;18.00;;;;;;;;;;5093368;28;20542;-78
2020/12/04 00:11:10;;;;;;;32.47;16.88;;;;;;;;;;5092012;28;20111;-78
2020/12/04 00:13:35;;;;;;;32.97;18.27;;;;;;;;;;5092915;28;20040;-78
2020/12/04 00:16:01;;;;;;;32.75;16.70;;;;;;;;;;5091957;28;20539;-78
2020/12/04 00:18:27;;;;;;;31.75;16.63;;;;;;;;;;5092929;28;20385;-78
2020/12/04 00:20:52;;;;;;;35.40;17.42;;;;;;;;;;5093066;28;20481;-78
2020/12/04 00:23:17;;;;;;;32.47;19.67;;;;;;;;;;5092920;28;20526;-78
2020/12/04 00:25:43;;;;;;;31.85;17.75;;;;;;;;;;5092613;28;20123;-79
2020/12/04 00:28:08;;;;;;;35.15;19.13;;;;;;;;;;5096194;28;20046;-78
2020/12/04 00:30:33;;;;;;;31.67;17.10;;;;;;;;;;5097042;28;20050;-77
2020/12/04 00:32:59;;;;;;;35.30;19.10;;;;;;;;;;5096591;28;20040;-78
2020/12/04 00:35:24;;;;;;;35.13;19.48;;;;;;;;;;5112705;28;20093;-78
2020/12/04 00:37:50;;;;;;;37.20;19.55;;;;;;;;;;5115779;28;20065;-78
2020/12/04 00:40:15;;;;;;;30.60;18.27;;;;;;;;;;5117088;28;20035;-78
2020/12/04 00:42:44;;;;;;;32.85;18.73;;;;;;;;;;5109694;28;20043;-78
2020/12/04 00:45:10;;;;;;;34.40;17.90;;;;;;;;;;5095050;28;20522;-78
2020/12/04 00:47:35;;;;;;;36.33;20.05;;;;;;;;;;5096625;28;20032;-78
2020/12/04 00:50:01;;;;;;;36.30;19.02;;;;;;;;;;5094730;28;20084;-77
2020/12/04 00:52:28;;;;;;;33.67;19.27;;;;;;;;;;5096338;28;20032;-78
2020/12/04 00:54:54;;;;;;;36.55;18.95;;;;;;;;;;5095629;28;20032;-78
2020/12/04 00:57:19;;;;;;;36.63;20.27;;;;;;;;;;5096431;28;20404;-77
2020/12/04 00:59:48;;;;;;;32.08;18.35;;;;;;;;;;5094925;28;20052;-78
2020/12/04 01:02:14;;;;;;;34.63;18.50;;;;;;;;;;5095517;28;20042;-78
2020/12/04 01:04:39;;;;;;;35.83;20.02;;;;;;;;;;5096022;28;20047;-78
2020/12/04 01:07:04;;;;;;;32.22;19.35;;;;;;;;;;5094907;28;20055;-78
2020/12/04 01:09:31;;;;;;;36.53;20.80;;;;;;;;;;5096040;28;20050;-78
2020/12/04 01:11:57;;;;;;;36.95;19.52;;;;;;;;;;5094942;28;20085;-78
2020/12/04 01:14:22;;;;;;;47.28;21.13;;;;;;;;;;5094394;28;20040;-78
2020/12/04 01:16:47;;;;;;;35.47;19.10;;;;;;;;;;5095746;28;20046;-78
2020/12/04 01:19:13;;;;;;;34.13;19.13;;;;;;;;;;5095849;28;20040;-78
2020/12/04 01:21:39;;;;;;;34.63;19.10;;;;;;;;;;5095938;28;20036;-78
2020/12/04 01:24:04;;;;;;;34.65;19.40;;;;;;;;;;5095428;28;20036;-78
2020/12/04 01:26:29;;;;;;;31.95;17.83;;;;;;;;;;5095452;28;20035;-78
2020/12/04 01:28:55;;;;;;;31.13;18.48;;;;;;;;;;5097473;28;20036;-78
2020/12/04 01:31:20;;;;;;;33.17;18.60;;;;;;;;;;5114373;28;20381;-78
2020/12/04 01:33:45;;;;;;;32.85;18.38;;;;;;;;;;5115994;28;20038;-78
2020/12/04 01:36:13;;;;;;;31.63;18.17;;;;;;;;;;5113677;28;20050;-78
2020/12/04 01:38:38;;;;;;;30.38;17.63;;;;;;;;;;5114817;28;20040;-77
2020/12/04 01:41:04;;;;;;;31.90;18.42;;;;;;;;;;5115799;28;20115;-78
2020/12/04 01:43:29;;;;;;;32.53;18.52;;;;;;;;;;5099793;28;20061;-78
2020/12/04 01:45:56;;;;;;;35.03;19.30;;;;;;;;;;5095116;28;20386;-78
2020/12/04 01:48:22;;;;;;;31.63;17.05;;;;;;;;;;5090404;28;20089;-78
2020/12/04 01:50:50;;;;;;;32.78;17.23;;;;;;;;;;5074759;28;20433;-78
2020/12/04 01:53:16;;;;;;;32.35;17.67;;;;;;;;;;5074833;28;20040;-78
2020/12/04 01:55:41;;;;;;;33.97;17.38;;;;;;;;;;5074818;28;20038;-78
2020/12/04 01:58:11;;;;;;;29.00;16.92;;;;;;;;;;5073037;28;20044;-77
2020/12/04 02:00:37;;;;;;;32.65;16.30;;;;;;;;;;5074879;28;20044;-78
2020/12/04 02:03:02;;;;;;;30.55;17.45;;;;;;;;;;5074678;28;20083;-77
2020/12/04 02:05:27;;;;;;;29.48;15.90;;;;;;;;;;5074751;28;20494;-78
2020/12/04 02:08:06;;;;;;;29.23;17.70;;;;;;;;;;5074853;28;20040;-77
2020/12/04 02:10:56;;;;;;;28.77;16.73;;;;;;;;;;5074458;28;20036;-78
2020/12/04 02:13:22;;;;;;;28.70;16.10;;;;;;;;;;5074296;28;20481;-78
2020/12/04 02:15:48;;;;;;;29.60;16.35;;;;;;;;;;5090172;28;20039;-78
2020/12/04 02:18:14;;;;;;;29.10;16.67;;;;;;;;;;5115225;28;20035;-78
2020/12/04 02:20:40;;;;;;;28.38;16.55;;;;;;;;;;5115059;28;20039;-77
2020/12/04 02:23:05;;;;;;;30.55;15.55;;;;;;;;;;5114965;28;20078;-78
2020/12/04 02:25:31;;;;;;;29.52;16.23;;;;;;;;;;5115029;28;20035;-78
2020/12/04 02:27:56;;;;;;;32.65;16.70;;;;;;;;;;5114839;27;20027;-78
2020/12/04 02:30:32;;;;;;;29.92;15.75;;;;;;;;;;5114786;28;20039;-78
2020/12/04 02:32:57;;;;;;;30.25;17.08;;;;;;;;;;5114987;28;20097;-78
2020/12/04 02:35:22;;;;;;;27.85;15.20;;;;;;;;;;5114930;28;20032;-78
2020/12/04 02:37:48;;;;;;;29.02;16.27;;;;;;;;;;5114485;28;20077;-78
2020/12/04 02:40:13;;;;;;;26.02;15.55;;;;;;;;;;5114453;28;20036;-78
2020/12/04 02:42:42;;;;;;;26.63;15.75;;;;;;;;;;5113151;28;20031;-77
2020/12/04 02:45:08;;;;;;;25.00;14.75;;;;;;;;;;5112058;28;20085;-78
2020/12/04 02:47:33;;;;;;;25.50;15.10;;;;;;;;;;5093831;28;20032;-78
2020/12/04 02:49:59;;;;;;;27.33;15.63;;;;;;;;;;5103982;28;20067;-78
2020/12/04 02:52:25;;;;;;;31.77;15.98;;;;;;;;;;5114262;28;20451;-78
2020/12/04 02:54:50;;;;;;;29.73;16.73;;;;;;;;;;5112960;28;20077;-78
2020/12/04 02:57:16;;;;;;;26.38;15.98;;;;;;;;;;5114226;28;20035;-78
2020/12/04 02:59:42;;;;;;;26.25;15.70;;;;;;;;;;5114169;28;20070;-78
2020/12/04 03:02:08;;;;;;;27.48;16.65;;;;;;;;;;5114057;28;20122;-79
2020/12/04 03:04:33;;;;;;;29.75;16.60;;;;;;;;;;5114213;28;20039;-78
2020/12/04 03:06:59;;;;;;;28.00;16.55;;;;;;;;;;5114134;28;20051;-78
2020/12/04 03:09:24;;;;;;;28.33;16.83;;;;;;;;;;5114695;28;20036;-78
2020/12/04 03:11:49;;;;;;;28.27;16.55;;;;;;;;;;5112809;28;20035;-78
2020/12/04 03:14:15;;;;;;;32.20;17.85;;;;;;;;;;5114683;28;20043;-78
2020/12/04 03:16:40;;;;;;;27.25;16.52;;;;;;;;;;5113978;28;20031;-80
2020/12/04 03:19:06;;;;;;;30.15;17.83;;;;;;;;;;5110100;28;20481;-79
2020/12/04 03:21:31;;;;;;;31.75;17.58;;;;;;;;;;5093606;28;20043;-77
2020/12/04 03:23:56;;;;;;;28.98;16.60;;;;;;;;;;5094394;28;20036;-77
2020/12/04 03:26:22;;;;;;;27.75;16.67;;;;;;;;;;5093605;28;20443;-78
2020/12/04 03:28:48;;;;;;;28.02;16.45;;;;;;;;;;5094094;28;20402;-77
2020/12/04 03:31:13;;;;;;;29.08;16.42;;;;;;;;;;5093103;28;20405;-78
2020/12/04 03:33:38;;;;;;;29.88;17.38;;;;;;;;;;5093711;28;20159;-77
2020/12/04 03:36:04;;;;;;;28.27;17.50;;;;;;;;;;5093573;28;20389;-77
2020/12/04 03:38:29;;;;;;;30.13;17.88;;;;;;;;;;5092416;28;20082;-77
2020/12/04 03:40:55;;;;;;;29.77;17.00;;;;;;;;;;5093318;28;20043;-77
2020/12/04 03:43:20;;;;;;;27.70;16.63;;;;;;;;;;5092166;28;20085;-77
2020/12/04 03:45:46;;;;;;;29.58;17.35;;;;;;;;;;5091583;28;20455;-77
2020/12/04 03:48:11;;;;;;;31.48;16.98;;;;;;;;;;5095411;28;20075;-78
2020/12/04 03:50:36;;;;;;;27.48;17.23;;;;;;;;;;5093308;28;20043;-78
2020/12/04 03:53:02;;;;;;;31.00;17.40;;;;;;;;;;5094341;28;20024;-79
2020/12/04 03:55:27;;;;;;;31.65;17.33;;;;;;;;;;5093397;28;20032;-76
2020/12/04 03:57:52;;;;;;;28.15;16.10;;;;;;;;;;5093224;28;20105;-76
2020/12/04 04:00:18;;;;;;;32.65;17.63;;;;;;;;;;5092576;28;20035;-77
2020/12/04 04:02:44;;;;;;;25.27;15.75;;;;;;;;;;5094391;28;20410;-77
2020/12/04 04:05:09;;;;;;;28.65;17.25;;;;;;;;;;5095934;28;20032;-75
2020/12/04 04:07:34;;;;;;;33.25;18.75;;;;;;;;;;5096106;28;20525;-75
2020/12/04 04:10:00;;;;;;;32.05;17.33;;;;;;;;;;5094596;28;20036;-75
2020/12/04 04:12:25;;;;;;;26.80;16.85;;;;;;;;;;5094860;28;20028;-75
2020/12/04 04:14:51;;;;;;;30.77;18.13;;;;;;;;;;5094748;28;20036;-75
2020/12/04 04:17:17;;;;;;;30.05;17.40;;;;;;;;;;5094617;28;20032;-75
2020/12/04 04:19:42;;;;;;;29.48;17.10;;;;;;;;;;5094834;28;20031;-75
2020/12/04 04:22:08;;;;;;;25.35;16.52;;;;;;;;;;5094808;28;20480;-75
2020/12/04 04:24:33;;;;;;;29.95;18.10;;;;;;;;;;5095397;28;20043;-75
2020/12/04 04:26:58;;;;;;;31.02;17.85;;;;;;;;;;5096779;28;20117;-75
2020/12/04 04:29:23;;;;;;;30.98;17.85;;;;;;;;;;5096745;28;20450;-75
2020/12/04 04:31:50;;;;;;;27.52;15.88;;;;;;;;;;5096460;28;20608;-75
2020/12/04 04:34:16;;;;;;;29.88;17.08;;;;;;;;;;5096665;28;20036;-75
2020/12/04 04:36:42;;;;;;;31.58;17.17;;;;;;;;;;5096541;28;20385;-75
2020/12/04 04:39:07;;;;;;;28.67;16.17;;;;;;;;;;5096694;28;20039;-75
2020/12/04 04:41:33;;;;;;;32.13;18.15;;;;;;;;;;5096574;28;20043;-75
2020/12/04 04:43:58;;;;;;;31.42;18.85;;;;;;;;;;5096474;28;20047;-75
2020/12/04 04:46:38;;;;;;;32.03;17.38;;;;;;;;;;5096102;28;20123;-75
2020/12/04 04:49:26;;;;;;;31.10;17.88;;;;;;;;;;5096241;28;20070;-75
2020/12/04 04:51:53;;;;;;;33.90;19.23;;;;;;;;;;5096082;28;20035;-75
2020/12/04 04:54:19;;;;;;;33.85;19.50;;;;;;;;;;5096329;28;20067;-75
2020/12/04 04:56:49;;;;;;;34.80;20.30;;;;;;;;;;5096339;28;20091;-75
2020/12/04 04:59:16;;;;;;;35.65;20.40;;;;;;;;;;5096097;28;20062;-75
2020/12/04 05:01:41;;;;;;;31.55;18.92;;;;;;;;;;5095791;28;20032;-75
2020/12/04 05:04:07;;;;;;;32.28;18.42;;;;;;;;;;5096085;28;20432;-75
2020/12/04 05:06:35;;;;;;;34.22;19.65;;;;;;;;;;5096061;28;20075;-75
2020/12/04 05:09:02;;;;;;;41.65;20.90;;;;;;;;;;5096039;28;20073;-75
2020/12/04 05:11:27;;;;;;;37.63;21.05;;;;;;;;;;5096030;28;20537;-75
2020/12/04 05:14:13;;;;;;;39.22;22.00;;;;;;;;;;5095739;28;20066;-75
2020/12/04 05:16:38;;;;;;;42.53;24.27;;;;;;;;;;5094403;28;20036;-75
2020/12/04 05:19:04;;;;;;;48.28;26.85;;;;;;;;;;5098789;28;20034;-75
2020/12/04 05:21:31;;;;;;;58.60;29.45;;;;;;;;;;5116242;28;20036;-75
2020/12/04 05:23:59;;;;;;;51.03;26.58;;;;;;;;;;5097922;28;20023;-75
2020/12/04 05:26:29;;;;;;;44.72;24.25;;;;;;;;;;5116173;28;20114;-75
2020/12/04 05:28:54;;;;;;;49.22;25.95;;;;;;;;;;5116044;28;20044;-75
2020/12/04 05:31:27;;;;;;;44.45;25.23;;;;;;;;;;5115764;28;20072;-75
2020/12/04 05:33:53;;;;;;;48.15;26.08;;;;;;;;;;5115722;28;20513;-75
2020/12/04 05:36:29;;;;;;;45.55;26.00;;;;;;;;;;5116025;28;20126;-75
2020/12/04 05:38:56;;;;;;;46.80;27.33;;;;;;;;;;5116032;28;20035;-75
2020/12/04 05:41:22;;;;;;;48.58;26.98;;;;;;;;;;5115619;28;20062;-75
2020/12/04 05:43:49;;;;;;;49.58;26.77;;;;;;;;;;5114605;28;20027;-75
2020/12/04 05:46:23;;;;;;;54.92;28.33;;;;;;;;;;5115306;28;20385;-75
2020/12/04 05:49:09;;;;;;;48.47;26.85;;;;;;;;;;5114413;28;20035;-75
2020/12/04 05:51:39;;;;;;;51.25;27.70;;;;;;;;;;5095171;28;20043;-75
2020/12/04 05:54:06;;;;;;;48.22;26.77;;;;;;;;;;5095134;28;20049;-75
2020/12/04 05:56:33;;;;;;;56.78;30.02;;;;;;;;;;5095271;28;20032;-75
2020/12/04 05:59:02;;;;;;;50.72;26.95;;;;;;;;;;5095033;28;20048;-75
2020/12/04 06:01:27;;;;;;;53.28;26.50;;;;;;;;;;5094684;28;20036;-75
2020/12/04 06:03:54;;;;;;;55.72;27.65;;;;;;;;;;5095070;28;20524;-75
2020/12/04 06:06:29;;;;;;;50.88;26.98;;;;;;;;;;5095061;28;20036;-75
2020/12/04 06:08:59;;;;;;;50.53;26.48;;;;;;;;;;5094978;28;20052;-75
2020/12/04 06:11:31;;;;;;;42.88;24.95;;;;;;;;;;5094818;28;20390;-75
2020/12/04 06:13:58;;;;;;;48.55;25.88;;;;;;;;;;5094754;28;20431;-75
2020/12/04 06:16:23;;;;;;;51.75;24.65;;;;;;;;;;5094600;28;20031;-75
2020/12/04 06:18:49;;;;;;;47.20;25.60;;;;;;;;;;5094765;28;20094;-75
2020/12/04 06:21:14;;;;;;;50.72;26.73;;;;;;;;;;5094472;28;20500;-75
2020/12/04 06:24:06;;;;;;;41.05;22.52;;;;;;;;;;5093761;28;20071;-75
2020/12/04 06:26:46;;;;;;;46.47;24.52;;;;;;;;;;5094514;28;20028;-75
2020/12/04 06:29:12;;;;;;;43.55;22.77;;;;;;;;;;5094386;28;20449;-75
2020/12/04 06:31:37;;;;;;;36.90;22.02;;;;;;;;;;5094130;28;20107;-75
2020/12/04 06:34:13;;;;;;;46.78;23.40;;;;;;;;;;5094393;28;20039;-74
2020/12/04 06:36:39;;;;;;;46.90;23.63;;;;;;;;;;5094493;28;20043;-77
2020/12/04 06:39:04;;;;;;;42.58;22.05;;;;;;;;;;5094034;28;20044;-73
2020/12/04 06:41:43;;;;;;;37.95;21.17;;;;;;;;;;5094303;28;20398;-73
2020/12/04 06:44:20;;;;;;;39.58;20.48;;;;;;;;;;5094103;28;20024;-73
2020/12/04 06:46:49;;;;;;;35.83;18.38;;;;;;;;;;5092035;28;20037;-73
2020/12/04 06:52:15;;;;;;;41.50;23.90;;;;;;;;;;5094101;28;20032;-73
2020/12/04 06:54:45;;;;;;;38.38;21.25;;;;;;;;;;5093965;28;20036;-73
2020/12/04 06:57:11;;;;;;;44.50;23.38;;;;;;;;;;5094030;28;20043;-74
2020/12/04 06:59:39;;;;;;;34.47;20.23;;;;;;;;;;5093845;28;20101;-73
2020/12/04 07:02:06;;;;;;;41.30;23.98;;;;;;;;;;5093602;28;20262;-74
2020/12/04 07:04:33;;;;;;;43.10;23.58;;;;;;;;;;5093749;28;20443;-74
2020/12/04 07:07:06;;;;;;;44.47;23.63;;;;;;;;;;5092749;28;20383;-74
2020/12/04 07:09:35;;;;;;;48.53;25.52;;;;;;;;;;5092544;28;20485;-76
2020/12/04 07:12:04;;;;;;;47.20;25.60;;;;;;;;;;5075670;28;20066;-75
2020/12/04 07:14:30;;;;;;;54.83;26.75;;;;;;;;;;5092587;28;20112;-74
2020/12/04 07:16:55;;;;;;;41.05;22.08;;;;;;;;;;5093433;28;20396;-74
2020/12/04 07:19:22;;;;;;;42.95;23.23;;;;;;;;;;5093658;28;20032;-73
2020/12/04 07:21:47;;;;;;;50.13;24.95;;;;;;;;;;5093508;28;20134;-73
2020/12/04 07:24:12;;;;;;;48.78;25.05;;;;;;;;;;5100866;28;20118;-73
2020/12/04 07:26:42;;;;;;;49.25;24.02;;;;;;;;;;5113918;28;20063;-73
2020/12/04 07:29:09;;;;;;;47.13;23.40;;;;;;;;;;5113841;28;20126;-74
2020/12/04 07:31:35;;;;;;;42.65;23.45;;;;;;;;;;5113571;28;20374;-74
2020/12/04 07:34:02;;;;;;;41.22;21.60;;;;;;;;;;5113749;28;20527;-74
2020/12/04 07:36:28;;;;;;;35.30;18.90;;;;;;;;;;5074424;28;20475;-74
2020/12/04 07:38:56;;;;;;;34.85;19.05;;;;;;;;;;5072062;28;20033;-75
2020/12/04 07:41:31;;;;;;;34.25;18.25;;;;;;;;;;5073116;28;20052;-75
2020/12/04 07:43:58;;;;;;;32.08;17.60;;;;;;;;;;5073293;28;20051;-75
2020/12/04 07:46:24;;;;;;;41.47;18.05;;;;;;;;;;5073112;28;20041;-75
2020/12/04 07:49:09;;;;;;;31.58;16.75;;;;;;;;;;5073223;28;20082;-75
2020/12/04 07:51:41;;;;;;;34.58;17.90;;;;;;;;;;5073196;28;20043;-73
2020/12/04 07:54:27;;;;;;;34.53;16.77;;;;;;;;;;5085738;28;20036;-73
2020/12/04 07:56:54;;;;;;;30.85;15.98;;;;;;;;;;5113295;28;20404;-74
2020/12/04 07:59:28;;;;;;;36.78;18.55;;;;;;;;;;5099577;28;20113;-73
2020/12/04 08:01:53;;;;;;;29.70;15.75;;;;;;;;;;5092895;28;20040;-73
2020/12/04 08:04:19;;;;;;;30.08;13.95;;;;;;;;;;5093058;28;20046;-74
2020/12/04 08:06:48;;;;;;;27.50;14.55;;;;;;;;;;5093346;28;20117;-74
2020/12/04 08:09:16;;;;;;;23.90;12.52;;;;;;;;;;5093045;28;20154;-74
2020/12/04 08:11:54;;;;;;;38.28;18.85;;;;;;;;;;5092942;28;20027;-74
2020/12/04 08:14:23;;;;;;;26.60;14.15;;;;;;;;;;5093871;28;20068;-78
2020/12/04 08:16:53;;;;;;;21.15;11.93;;;;;;;;;;5092969;28;20555;-77
2020/12/04 08:19:18;;;;;;;21.95;10.60;;;;;;;;;;5093165;28;20039;-78
2020/12/04 08:22:00;;;;;;;23.67;11.68;;;;;;;;;;5093190;28;20040;-77
2020/12/04 08:24:27;;;;;;;23.33;11.30;;;;;;;;;;5093306;28;20050;-77
2020/12/04 08:27:10;;;;;;;28.73;13.73;;;;;;;;;;5092773;28;20036;-77
2020/12/04 08:29:38;;;;;;;25.50;12.15;;;;;;;;;;5091054;28;20071;-77
2020/12/04 08:32:05;;;;;;;21.65;11.10;;;;;;;;;;5092791;28;20036;-77
2020/12/04 08:34:30;;;;;;;18.45;9.45;;;;;;;;;;5092849;28;20131;-77
2020/12/04 08:37:01;;;;;;;14.55;8.23;;;;;;;;;;5092853;28;20123;-77
2020/12/04 08:39:41;;;;;;;23.75;9.70;;;;;;;;;;5091442;28;20058;-76
2020/12/04 08:42:15;;;;;;;16.73;8.57;;;;;;;;;;5092799;28;20035;-77
2020/12/04 08:44:41;;;;;;;19.75;9.43;;;;;;;;;;5091619;28;20063;-77
2020/12/04 08:47:07;;;;;;;23.83;12.70;;;;;;;;;;5092610;28;20089;-77
2020/12/04 08:49:32;;;;;;;22.00;10.15;;;;;;;;;;5096566;28;20032;-77
2020/12/04 08:51:57;;;;;;;15.00;8.48;;;;;;;;;;5096458;28;20081;-77
2020/12/04 08:54:23;;;;;;;15.35;9.25;;;;;;;;;;5096644;28;20093;-77
2020/12/04 08:56:52;;;;;;;14.82;7.72;;;;;;;;;;5096977;28;20031;-77
2020/12/04 08:59:17;;;;;;;11.98;6.90;;;;;;;;;;5096474;28;20040;-75
2020/12/04 09:01:43;;;;;;;16.52;7.95;;;;;;;;;;5096252;28;20416;-77
2020/12/04 09:04:08;;;;;;;12.52;7.72;;;;;;;;;;5096229;28;20470;-77
2020/12/04 09:06:34;;;;;;;16.10;7.53;;;;;;;;;;5095987;28;20035;-76
2020/12/04 09:08:59;;;;;;;15.32;8.10;;;;;;;;;;5096258;28;20039;-77
2020/12/04 09:11:24;;;;;;;13.65;7.18;;;;;;;;;;5096769;28;20137;-77
2020/12/04 09:13:50;;;;;;;10.63;6.22;;;;;;;;;;5095962;28;20043;-77
2020/12/04 09:16:15;;;;;;;14.70;6.20;;;;;;;;;;5095944;28;20036;-77
2020/12/04 09:18:40;;;;;;;15.05;7.22;;;;;;;;;;5095716;28;20404;-76
2020/12/04 09:21:06;;;;;;;9.63;5.85;;;;;;;;;;5094475;28;20093;-77
2020/12/04 09:23:33;;;;;;;8.52;5.32;;;;;;;;;;5095873;28;20047;-77
2020/12/04 09:25:59;;;;;;;8.70;4.97;;;;;;;;;;5094694;28;20036;-76
2020/12/04 09:28:24;;;;;;;10.45;5.40;;;;;;;;;;5095783;28;20044;-76
2020/12/04 09:30:49;;;;;;;9.95;5.25;;;;;;;;;;5095597;28;20070;-78
2020/12/04 09:33:15;;;;;;;12.00;5.93;;;;;;;;;;5095959;28;20351;-77
2020/12/04 09:35:40;;;;;;;11.27;5.72;;;;;;;;;;5096526;28;20055;-76
2020/12/04 09:38:06;;;;;;;8.65;5.22;;;;;;;;;;5095831;28;20067;-77
2020/12/04 09:40:31;;;;;;;10.27;5.43;;;;;;;;;;5095608;28;20443;-77
2020/12/04 09:42:56;;;;;;;8.73;5.47;;;;;;;;;;5095412;28;20061;-76
2020/12/04 09:45:22;;;;;;;9.00;6.07;;;;;;;;;;5095645;28;20040;-77
2020/12/04 09:47:47;;;;;;;13.15;6.53;;;;;;;;;;5095255;28;20032;-75
2020/12/04 09:50:15;;;;;;;11.07;6.30;;;;;;;;;;5095109;28;20028;-76
2020/12/04 09:52:41;;;;;;;11.73;6.15;;;;;;;;;;5095445;28;20028;-76
2020/12/04 09:55:07;;;;;;;12.77;6.93;;;;;;;;;;5095112;28;20036;-76
2020/12/04 09:57:34;;;;;;;14.63;7.63;;;;;;;;;;5095147;28;20474;-76
2020/12/04 10:00:00;;;;;;;16.42;7.75;;;;;;;;;;5093993;28;20044;-76
2020/12/04 10:02:25;;;;;;;17.45;8.13;;;;;;;;;;5094895;28;20127;-76
2020/12/04 10:04:52;;;;;;;16.05;9.20;;;;;;;;;;5094944;28;20110;-76
2020/12/04 10:07:17;;;;;;;18.83;8.43;;;;;;;;;;5095031;28;20036;-76
2020/12/04 10:09:42;;;;;;;22.33;8.52;;;;;;;;;;5094909;28;20036;-76
2020/12/04 10:12:08;;;;;;;21.35;10.50;;;;;;;;;;5094804;28;20024;-77
2020/12/04 10:14:36;;;;;;;40.13;20.60;;;;;;;;;;5094813;28;20461;-76
2020/12/04 10:17:02;;;;;;;51.17;20.67;;;;;;;;;;5094490;28;20040;-77
2020/12/04 10:19:28;;;;;;;49.22;21.90;;;;;;;;;;5094705;28;20036;-77
2020/12/04 10:21:53;;;;;;;51.17;25.15;;;;;;;;;;5094410;28;20093;-76
2020/12/04 10:24:19;;;;;;;50.15;24.83;;;;;;;;;;5094192;28;20043;-77
2020/12/04 10:26:47;;;;;;;59.30;25.30;;;;;;;;;;5094663;28;20068;-77
2020/12/04 10:29:14;;;;;;;56.45;25.90;;;;;;;;;;5094732;28;20032;-76
2020/12/04 10:31:40;;;;;;;61.80;26.58;;;;;;;;;;5094429;28;20036;-77
2020/12/04 10:34:05;;;;;;;59.45;26.85;;;;;;;;;;5094194;28;20046;-75
2020/12/04 10:36:31;;;;;;;59.00;25.88;;;;;;;;;;5094595;28;20028;-77
2020/12/04 10:38:58;;;;;;;48.95;24.27;;;;;;;;;;5094488;28;20054;-76
2020/12/04 10:41:23;;;;;;;52.20;24.92;;;;;;;;;;5094486;28;20047;-77
2020/12/04 10:43:49;;;;;;;57.33;24.35;;;;;;;;;;5094385;28;20032;-76
2020/12/04 10:46:16;;;;;;;48.90;23.25;;;;;;;;;;5094674;28;20035;-76
2020/12/04 10:48:41;;;;;;;49.70;21.73;;;;;;;;;;5094435;28;20127;-77
2020/12/04 10:51:07;;;;;;;51.35;23.85;;;;;;;;;;5094981;28;20059;-76
2020/12/04 10:53:32;;;;;;;46.75;22.48;;;;;;;;;;5096172;28;20028;-78
2020/12/04 10:55:57;;;;;;;54.38;24.50;;;;;;;;;;5094628;28;20042;-78
2020/12/04 10:58:23;;;;;;;49.88;22.52;;;;;;;;;;5093948;28;20056;-76
2020/12/04 11:00:50;;;;;;;56.95;22.65;;;;;;;;;;5093999;28;20123;-74
2020/12/04 11:06:02;;;;;;;52.15;22.52;;;;;;;;;;5082399;28;20044;-76
2020/12/04 11:08:27;;;;;;;50.60;21.30;;;;;;;;;;5094152;28;20162;-77
2020/12/04 11:10:53;;;;;;;51.28;23.48;;;;;;;;;;5094139;28;20038;-76
2020/12/04 11:13:18;;;;;;;53.35;23.90;;;;;;;;;;5093932;28;20474;-76
2020/12/04 11:15:44;;;;;;;52.42;21.27;;;;;;;;;;5094984;28;20042;-75
2020/12/04 11:18:09;;;;;;;53.58;24.02;;;;;;;;;;5093527;28;20039;-75
2020/12/04 11:20:34;;;;;;;50.45;22.33;;;;;;;;;;5093608;28;20119;-76
2020/12/04 11:23:00;;;;;;;50.53;21.65;;;;;;;;;;5092371;28;20123;-75
2020/12/04 11:25:25;;;;;;;46.42;20.48;;;;;;;;;;5081098;28;20040;-78
2020/12/04 11:27:52;;;;;;;56.67;22.73;;;;;;;;;;5074336;28;20051;-76
2020/12/04 11:30:19;;;;;;;52.90;21.33;;;;;;;;;;5093508;28;20036;-76
2020/12/04 11:32:47;;;;;;;49.50;21.13;;;;;;;;;;5093824;28;20036;-75
2020/12/04 11:35:14;;;;;;;44.72;20.88;;;;;;;;;;5093066;28;20071;-75
2020/12/04 11:37:41;;;;;;;47.08;20.67;;;;;;;;;;5093186;28;20028;-77
2020/12/04 11:40:09;;;;;;;44.83;20.13;;;;;;;;;;5093625;28;20059;-77
2020/12/04 11:42:39;;;;;;;49.67;21.10;;;;;;;;;;5092295;28;20078;-77
2020/12/04 11:45:09;;;;;;;50.60;20.20;;;;;;;;;;5093760;28;20086;-78
2020/12/04 11:47:38;;;;;;;46.00;18.63;;;;;;;;;;5093625;28;20470;-77
2020/12/04 11:50:13;;;;;;;43.83;18.77;;;;;;;;;;5093798;28;20423;-75
2020/12/04 11:52:38;;;;;;;38.63;17.55;;;;;;;;;;5093477;28;20036;-75
2020/12/04 11:55:04;;;;;;;40.95;17.95;;;;;;;;;;5093109;28;20127;-75
2020/12/04 11:57:30;;;;;;;36.63;17.60;;;;;;;;;;5092018;28;20028;-75
2020/12/04 11:59:55;;;;;;;46.53;19.75;;;;;;;;;;5093027;28;20479;-75
2020/12/04 12:02:21;;;;;;;48.15;20.98;;;;;;;;;;5092802;28;20432;-75
2020/12/04 12:04:46;;;;;;;44.40;18.25;;;;;;;;;;5093286;28;20366;-76
2020/12/04 12:07:12;;;;;;;42.70;18.42;;;;;;;;;;5093370;28;20032;-76
2020/12/04 12:09:37;;;;;;;40.33;19.05;;;;;;;;;;5092092;28;20044;-76
2020/12/04 12:12:03;;;;;;;44.78;18.45;;;;;;;;;;5093268;28;20043;-75
2020/12/04 12:14:28;;;;;;;40.35;17.33;;;;;;;;;;5093190;28;20043;-76
2020/12/04 12:16:54;;;;;;;40.08;18.20;;;;;;;;;;5092874;28;20047;-76
2020/12/04 12:19:19;;;;;;;42.85;18.88;;;;;;;;;;5093146;28;20088;-75
2020/12/04 12:21:48;;;;;;;44.35;19.60;;;;;;;;;;5093106;28;20473;-76
2020/12/04 12:24:14;;;;;;;47.80;20.52;;;;;;;;;;5096225;28;20114;-75
2020/12/04 12:26:40;;;;;;;42.65;17.60;;;;;;;;;;5096812;28;20063;-75
2020/12/04 12:29:05;;;;;;;40.42;18.13;;;;;;;;;;5096844;28;20039;-75
2020/12/04 12:31:31;;;;;;;40.47;18.23;;;;;;;;;;5096958;28;20035;-75
2020/12/04 12:33:56;;;;;;;38.10;18.25;;;;;;;;;;5096592;28;20040;-75
2020/12/04 12:36:22;;;;;;;41.25;16.98;;;;;;;;;;5095632;28;20113;-76
2020/12/04 12:38:47;;;;;;;38.40;17.05;;;;;;;;;;5096665;28;20422;-75
2020/12/04 12:41:13;;;;;;;38.15;17.85;;;;;;;;;;5096692;28;20043;-76
2020/12/04 12:43:39;;;;;;;42.80;18.08;;;;;;;;;;5095417;28;20036;-76
2020/12/04 12:46:04;;;;;;;43.67;18.88;;;;;;;;;;5096467;28;20386;-76
2020/12/04 12:48:30;;;;;;;36.72;16.90;;;;;;;;;;5096388;28;20024;-75
2020/12/04 12:50:55;;;;;;;34.92;16.50;;;;;;;;;;5096547;28;20036;-76
2020/12/04 12:53:22;;;;;;;32.92;15.80;;;;;;;;;;5095188;28;20067;-76
2020/12/04 12:55:47;;;;;;;39.80;16.20;;;;;;;;;;5096203;28;20036;-76
2020/12/04 12:58:13;;;;;;;36.95;15.65;;;;;;;;;;5096296;28;20477;-76
2020/12/04 13:00:38;;;;;;;42.92;17.50;;;;;;;;;;5096220;28;20110;-76
2020/12/04 13:03:04;;;;;;;43.90;18.08;;;;;;;;;;5096075;28;20093;-76
2020/12/04 13:05:33;;;;;;;37.50;17.00;;;;;;;;;;5096216;28;20089;-76
2020/12/04 13:08:00;;;;;;;48.30;19.58;;;;;;;;;;5096173;28;20055;-75
2020/12/04 13:10:26;;;;;;;38.20;16.70;;;;;;;;;;5096199;28;20477;-75
2020/12/04 13:12:51;;;;;;;40.92;17.77;;;;;;;;;;5096056;28;20023;-76
2020/12/04 13:15:18;;;;;;;36.95;16.95;;;;;;;;;;5096049;28;20419;-75
2020/12/04 13:17:44;;;;;;;40.53;18.67;;;;;;;;;;5095646;28;20028;-75
2020/12/04 13:20:09;;;;;;;44.05;19.88;;;;;;;;;;5095892;28;20028;-75
2020/12/04 13:22:34;;;;;;;36.03;17.25;;;;;;;;;;5095926;28;20381;-75
2020/12/04 13:25:00;;;;;;;36.95;14.82;;;;;;;;;;5095818;28;20458;-75
2020/12/04 13:27:26;;;;;;;38.13;17.17;;;;;;;;;;5095892;28;20101;-76
2020/12/04 13:29:51;;;;;;;42.17;17.02;;;;;;;;;;5095662;28;20040;-76
2020/12/04 13:32:16;;;;;;;37.58;17.35;;;;;;;;;;5095555;28;20125;-76
2020/12/04 13:34:41;;;;;;;36.05;16.00;;;;;;;;;;5095668;28;20036;-75
2020/12/04 13:37:07;;;;;;;41.20;18.15;;;;;;;;;;5095790;28;20119;-76
2020/12/04 13:39:33;;;;;;;38.40;15.95;;;;;;;;;;5094075;28;20107;-76
2020/12/04 13:42:00;;;;;;;35.13;16.80;;;;;;;;;;5094287;28;20028;-76
2020/12/04 13:44:25;;;;;;;40.28;16.08;;;;;;;;;;5094163;28;20042;-76
2020/12/04 13:46:50;;;;;;;35.55;16.27;;;;;;;;;;5095308;28;20036;-76
2020/12/04 13:49:21;;;;;;;33.38;15.45;;;;;;;;;;5095164;28;20059;-76
2020/12/04 13:51:47;;;;;;;32.85;15.48;;;;;;;;;;5093932;28;20457;-76
2020/12/04 13:54:13;;;;;;;34.17;13.80;;;;;;;;;;5095080;28;20085;-75
2020/12/04 13:56:40;;;;;;;77.07;19.42;;;;;;;;;;5095334;28;20428;-75
2020/12/04 13:59:07;;;;;;;37.58;16.13;;;;;;;;;;5095107;28;20059;-76
2020/12/04 14:01:33;;;;;;;51.22;24.27;;;;;;;;;;5095999;28;20421;-76
2020/12/04 14:03:59;;;;;;;43.88;19.77;;;;;;;;;;5094980;28;20028;-76
2020/12/04 14:06:24;;;;;;;44.25;19.60;;;;;;;;;;5094181;28;20054;-76
2020/12/04 14:08:50;;;;;;;37.40;17.13;;;;;;;;;;5095402;28;20495;-77
2020/12/04 14:11:17;;;;;;;32.90;15.75;;;;;;;;;;5094649;28;20414;-75
2020/12/04 14:13:43;;;;;;;34.78;15.25;;;;;;;;;;5095688;28;20035;-77
2020/12/04 14:16:09;;;;;;;34.90;14.80;;;;;;;;;;5094748;28;20031;-76
2020/12/04 14:18:37;;;;;;;33.10;14.45;;;;;;;;;;5094604;28;20123;-76
2020/12/04 14:21:08;;;;;;;32.78;14.23;;;;;;;;;;5094644;28;20046;-75
2020/12/04 14:23:34;;;;;;;32.83;14.20;;;;;;;;;;5094656;28;20393;-75